sensor_id;sensor_type;location;lat;lon;timestamp;P1;durP1;ratioP1;P2;durP2;ratioP2
72633;SDS011;60678;47.660;19.280;2023-04-01T00:00:23;1.42;;;0.80;;
72633;SDS011;60678;47.660;19.280;2023-04-01T00:02:50;1.60;;;0.90;;
72633;SDS011;60678;47.660;19.280;2023-04-01T00:05:17;1.70;;;0.97;;
72633;SDS011;60678;47.660;19.280;2023-04-01T00:07:44;1.52;;;0.82;;
72633;SDS011;60678;47.660;19.280;2023-04-01T00:10:12;1.80;;;1.10;;
72633;SDS011;60678;47.660;19.280;2023-04-01T00:12:39;1.77;;;1.00;;
72633;SDS011;60678;47.660;19.280;2023-04-01T00:15:08;2.67;;;1.48;;
72633;SDS011;60678;47.660;19.280;2023-04-01T00:17:36;1.80;;;1.10;;
72633;SDS011;60678;47.660;19.280;2023-04-01T00:20:03;1.52;;;0.80;;
72633;SDS011;60678;47.660;19.280;2023-04-01T00:22:33;1.80;;;1.00;;
72633;SDS011;60678;47.660;19.280;2023-04-01T00:25:00;1.62;;;0.93;;
72633;SDS011;60678;47.660;19.280;2023-04-01T00:27:27;1.60;;;0.90;;
72633;SDS011;60678;47.660;19.280;2023-04-01T00:29:54;1.60;;;0.90;;
72633;SDS011;60678;47.660;19.280;2023-04-01T00:32:22;1.55;;;0.90;;
72633;SDS011;60678;47.660;19.280;2023-04-01T00:34:49;1.73;;;1.00;;
72633;SDS011;60678;47.660;19.280;2023-04-01T00:37:16;1.70;;;0.95;;
72633;SDS011;60678;47.660;19.280;2023-04-01T00:39:43;1.65;;;0.95;;
72633;SDS011;60678;47.660;19.280;2023-04-01T00:42:11;1.80;;;1.00;;
72633;SDS011;60678;47.660;19.280;2023-04-01T00:44:39;1.70;;;0.90;;
72633;SDS011;60678;47.660;19.280;2023-04-01T00:47:06;1.60;;;0.90;;
72633;SDS011;60678;47.660;19.280;2023-04-01T00:49:34;1.62;;;0.90;;
72633;SDS011;60678;47.660;19.280;2023-04-01T00:52:03;1.70;;;1.00;;
72633;SDS011;60678;47.660;19.280;2023-04-01T00:54:31;1.80;;;1.10;;
72633;SDS011;60678;47.660;19.280;2023-04-01T00:56:59;2.37;;;1.55;;
72633;SDS011;60678;47.660;19.280;2023-04-01T00:59:27;1.62;;;0.90;;
72633;SDS011;60678;47.660;19.280;2023-04-01T01:01:56;1.90;;;1.10;;
72633;SDS011;60678;47.660;19.280;2023-04-01T01:04:24;5.53;;;1.55;;
72633;SDS011;60678;47.660;19.280;2023-04-01T01:06:55;1.70;;;0.90;;
72633;SDS011;60678;47.660;19.280;2023-04-01T01:09:29;1.60;;;0.90;;
72633;SDS011;60678;47.660;19.280;2023-04-01T01:12:00;1.80;;;1.00;;
72633;SDS011;60678;47.660;19.280;2023-04-01T01:14:37;1.87;;;1.10;;
72633;SDS011;60678;47.660;19.280;2023-04-01T01:17:11;1.70;;;1.00;;
72633;SDS011;60678;47.660;19.280;2023-04-01T01:19:51;2.23;;;1.40;;
72633;SDS011;60678;47.660;19.280;2023-04-01T01:25:25;2.60;;;1.55;;
72633;SDS011;60678;47.660;19.280;2023-04-01T01:27:58;2.05;;;1.33;;
72633;SDS011;60678;47.660;19.280;2023-04-01T01:30:38;1.70;;;1.00;;
72633;SDS011;60678;47.660;19.280;2023-04-01T01:36:07;1.83;;;1.10;;
72633;SDS011;60678;47.660;19.280;2023-04-01T01:38:35;1.70;;;1.00;;
72633;SDS011;60678;47.660;19.280;2023-04-01T01:41:03;1.70;;;1.00;;
72633;SDS011;60678;47.660;19.280;2023-04-01T01:43:32;1.92;;;1.12;;
72633;SDS011;60678;47.660;19.280;2023-04-01T01:46:03;1.90;;;1.10;;
72633;SDS011;60678;47.660;19.280;2023-04-01T01:48:34;1.90;;;1.10;;
72633;SDS011;60678;47.660;19.280;2023-04-01T01:51:01;1.73;;;1.00;;
72633;SDS011;60678;47.660;19.280;2023-04-01T01:53:29;1.80;;;1.10;;
72633;SDS011;60678;47.660;19.280;2023-04-01T01:55:56;1.70;;;1.00;;
72633;SDS011;60678;47.660;19.280;2023-04-01T01:58:23;1.80;;;1.07;;
72633;SDS011;60678;47.660;19.280;2023-04-01T02:00:53;1.80;;;1.00;;
72633;SDS011;60678;47.660;19.280;2023-04-01T02:03:22;1.92;;;1.15;;
72633;SDS011;60678;47.660;19.280;2023-04-01T02:05:51;2.45;;;1.65;;
72633;SDS011;60678;47.660;19.280;2023-04-01T02:08:20;3.25;;;1.52;;
72633;SDS011;60678;47.660;19.280;2023-04-01T02:10:53;2.00;;;1.17;;
72633;SDS011;60678;47.660;19.280;2023-04-01T02:13:24;1.90;;;1.15;;
72633;SDS011;60678;47.660;19.280;2023-04-01T02:15:53;1.70;;;0.90;;
72633;SDS011;60678;47.660;19.280;2023-04-01T02:18:22;1.85;;;1.10;;
72633;SDS011;60678;47.660;19.280;2023-04-01T02:20:49;1.80;;;1.00;;
72633;SDS011;60678;47.660;19.280;2023-04-01T02:23:16;1.60;;;0.90;;
72633;SDS011;60678;47.660;19.280;2023-04-01T02:25:43;2.50;;;1.60;;
72633;SDS011;60678;47.660;19.280;2023-04-01T02:28:12;1.62;;;0.90;;
72633;SDS011;60678;47.660;19.280;2023-04-01T02:30:41;1.90;;;1.08;;
72633;SDS011;60678;47.660;19.280;2023-04-01T02:33:09;1.70;;;1.00;;
72633;SDS011;60678;47.660;19.280;2023-04-01T02:35:36;1.87;;;1.10;;
72633;SDS011;60678;47.660;19.280;2023-04-01T02:38:03;1.80;;;1.00;;
72633;SDS011;60678;47.660;19.280;2023-04-01T02:40:40;1.70;;;0.90;;
72633;SDS011;60678;47.660;19.280;2023-04-01T02:43:08;1.98;;;1.20;;
72633;SDS011;60678;47.660;19.280;2023-04-01T02:45:36;1.83;;;1.10;;
72633;SDS011;60678;47.660;19.280;2023-04-01T02:48:04;1.80;;;1.10;;
72633;SDS011;60678;47.660;19.280;2023-04-01T02:50:31;2.00;;;1.17;;
72633;SDS011;60678;47.660;19.280;2023-04-01T02:52:57;1.80;;;1.00;;
72633;SDS011;60678;47.660;19.280;2023-04-01T02:55:24;1.70;;;1.00;;
72633;SDS011;60678;47.660;19.280;2023-04-01T02:57:51;1.90;;;1.10;;
72633;SDS011;60678;47.660;19.280;2023-04-01T03:00:18;2.00;;;1.20;;
72633;SDS011;60678;47.660;19.280;2023-04-01T03:02:46;1.80;;;1.10;;
72633;SDS011;60678;47.660;19.280;2023-04-01T03:05:13;1.80;;;1.00;;
72633;SDS011;60678;47.660;19.280;2023-04-01T03:07:40;5.30;;;2.53;;
72633;SDS011;60678;47.660;19.280;2023-04-01T03:10:07;1.80;;;1.05;;
72633;SDS011;60678;47.660;19.280;2023-04-01T03:12:34;1.90;;;1.10;;
72633;SDS011;60678;47.660;19.280;2023-04-01T03:15:01;1.75;;;1.00;;
72633;SDS011;60678;47.660;19.280;2023-04-01T03:17:28;1.70;;;1.00;;
72633;SDS011;60678;47.660;19.280;2023-04-01T03:19:57;1.77;;;1.08;;
72633;SDS011;60678;47.660;19.280;2023-04-01T03:22:24;2.20;;;1.35;;
72633;SDS011;60678;47.660;19.280;2023-04-01T03:24:50;2.00;;;1.20;;
72633;SDS011;60678;47.660;19.280;2023-04-01T03:27:18;1.87;;;1.10;;
72633;SDS011;60678;47.660;19.280;2023-04-01T03:29:45;2.10;;;1.30;;
72633;SDS011;60678;47.660;19.280;2023-04-01T03:32:11;1.95;;;1.17;;
72633;SDS011;60678;47.660;19.280;2023-04-01T03:34:38;1.73;;;1.00;;
72633;SDS011;60678;47.660;19.280;2023-04-01T03:37:06;1.87;;;1.10;;
72633;SDS011;60678;47.660;19.280;2023-04-01T03:39:33;2.12;;;1.30;;
72633;SDS011;60678;47.660;19.280;2023-04-01T03:42:00;2.00;;;1.20;;
72633;SDS011;60678;47.660;19.280;2023-04-01T03:44:30;2.03;;;1.20;;
72633;SDS011;60678;47.660;19.280;2023-04-01T03:46:57;1.80;;;1.00;;
72633;SDS011;60678;47.660;19.280;2023-04-01T03:49:24;1.90;;;1.10;;
72633;SDS011;60678;47.660;19.280;2023-04-01T03:51:51;2.50;;;1.67;;
72633;SDS011;60678;47.660;19.280;2023-04-01T03:54:19;1.90;;;1.10;;
72633;SDS011;60678;47.660;19.280;2023-04-01T03:56:45;1.95;;;1.20;;
72633;SDS011;60678;47.660;19.280;2023-04-01T03:59:12;2.33;;;1.58;;
72633;SDS011;60678;47.660;19.280;2023-04-01T04:01:40;2.37;;;1.57;;
72633;SDS011;60678;47.660;19.280;2023-04-01T04:04:06;2.00;;;1.20;;
72633;SDS011;60678;47.660;19.280;2023-04-01T04:06:33;2.20;;;1.37;;
72633;SDS011;60678;47.660;19.280;2023-04-01T04:09:00;1.70;;;0.93;;
72633;SDS011;60678;47.660;19.280;2023-04-01T04:11:28;2.70;;;1.58;;
72633;SDS011;60678;47.660;19.280;2023-04-01T04:13:57;2.00;;;1.20;;
72633;SDS011;60678;47.660;19.280;2023-04-01T04:16:24;1.90;;;1.10;;
72633;SDS011;60678;47.660;19.280;2023-04-01T04:18:50;2.05;;;1.25;;
72633;SDS011;60678;47.660;19.280;2023-04-01T04:21:17;2.00;;;1.20;;
72633;SDS011;60678;47.660;19.280;2023-04-01T04:23:44;1.85;;;1.15;;
72633;SDS011;60678;47.660;19.280;2023-04-01T04:26:11;1.90;;;1.10;;
72633;SDS011;60678;47.660;19.280;2023-04-01T04:28:41;1.80;;;1.05;;
72633;SDS011;60678;47.660;19.280;2023-04-01T04:31:07;1.70;;;1.00;;
72633;SDS011;60678;47.660;19.280;2023-04-01T04:33:36;2.00;;;1.30;;
72633;SDS011;60678;47.660;19.280;2023-04-01T04:36:03;1.87;;;1.10;;
72633;SDS011;60678;47.660;19.280;2023-04-01T04:38:31;2.17;;;1.30;;
72633;SDS011;60678;47.660;19.280;2023-04-01T04:40:58;3.87;;;2.08;;
72633;SDS011;60678;47.660;19.280;2023-04-01T04:43:25;2.20;;;1.45;;
72633;SDS011;60678;47.660;19.280;2023-04-01T04:45:55;2.10;;;1.30;;
72633;SDS011;60678;47.660;19.280;2023-04-01T04:48:21;2.10;;;1.30;;
72633;SDS011;60678;47.660;19.280;2023-04-01T04:50:49;1.90;;;1.10;;
72633;SDS011;60678;47.660;19.280;2023-04-01T04:53:17;2.00;;;1.20;;
72633;SDS011;60678;47.660;19.280;2023-04-01T04:55:45;2.40;;;1.52;;
72633;SDS011;60678;47.660;19.280;2023-04-01T04:58:14;1.90;;;1.10;;
72633;SDS011;60678;47.660;19.280;2023-04-01T05:00:45;2.47;;;1.80;;
72633;SDS011;60678;47.660;19.280;2023-04-01T05:03:13;2.20;;;1.40;;
72633;SDS011;60678;47.660;19.280;2023-04-01T05:05:47;2.92;;;2.12;;
72633;SDS011;60678;47.660;19.280;2023-04-01T05:08:15;2.00;;;1.15;;
72633;SDS011;60678;47.660;19.280;2023-04-01T05:10:42;2.10;;;1.27;;
72633;SDS011;60678;47.660;19.280;2023-04-01T05:13:08;2.00;;;1.10;;
72633;SDS011;60678;47.660;19.280;2023-04-01T05:15:36;2.03;;;1.27;;
72633;SDS011;60678;47.660;19.280;2023-04-01T05:18:03;2.20;;;1.33;;
72633;SDS011;60678;47.660;19.280;2023-04-01T05:20:31;1.90;;;1.10;;
72633;SDS011;60678;47.660;19.280;2023-04-01T05:22:59;2.00;;;1.20;;
72633;SDS011;60678;47.660;19.280;2023-04-01T05:25:26;1.90;;;1.10;;
72633;SDS011;60678;47.660;19.280;2023-04-01T05:27:52;2.00;;;1.20;;
72633;SDS011;60678;47.660;19.280;2023-04-01T05:30:20;1.80;;;1.00;;
72633;SDS011;60678;47.660;19.280;2023-04-01T05:32:47;2.10;;;1.25;;
72633;SDS011;60678;47.660;19.280;2023-04-01T05:35:13;2.10;;;1.30;;
72633;SDS011;60678;47.660;19.280;2023-04-01T05:37:41;3.35;;;2.00;;
72633;SDS011;60678;47.660;19.280;2023-04-01T05:40:09;1.80;;;1.00;;
72633;SDS011;60678;47.660;19.280;2023-04-01T05:42:36;1.92;;;1.08;;
72633;SDS011;60678;47.660;19.280;2023-04-01T05:45:03;2.05;;;1.27;;
72633;SDS011;60678;47.660;19.280;2023-04-01T05:47:30;2.03;;;1.30;;
72633;SDS011;60678;47.660;19.280;2023-04-01T05:49:57;1.95;;;1.17;;
72633;SDS011;60678;47.660;19.280;2023-04-01T05:52:23;2.10;;;1.30;;
72633;SDS011;60678;47.660;19.280;2023-04-01T05:54:52;2.45;;;1.62;;
72633;SDS011;60678;47.660;19.280;2023-04-01T05:57:18;1.70;;;0.95;;
72633;SDS011;60678;47.660;19.280;2023-04-01T05:59:45;1.73;;;1.02;;
72633;SDS011;60678;47.660;19.280;2023-04-01T06:02:12;1.70;;;0.93;;
72633;SDS011;60678;47.660;19.280;2023-04-01T06:04:39;1.70;;;1.00;;
72633;SDS011;60678;47.660;19.280;2023-04-01T06:07:10;1.60;;;0.90;;
72633;SDS011;60678;47.660;19.280;2023-04-01T06:09:38;1.70;;;0.93;;
72633;SDS011;60678;47.660;19.280;2023-04-01T06:12:14;1.80;;;1.00;;
72633;SDS011;60678;47.660;19.280;2023-04-01T06:14:58;1.70;;;1.00;;
72633;SDS011;60678;47.660;19.280;2023-04-01T06:17:47;1.53;;;0.90;;
72633;SDS011;60678;47.660;19.280;2023-04-01T06:20:37;1.60;;;0.90;;
72633;SDS011;60678;47.660;19.280;2023-04-01T06:23:10;1.70;;;1.00;;
72633;SDS011;60678;47.660;19.280;2023-04-01T06:25:52;1.73;;;1.02;;
72633;SDS011;60678;47.660;19.280;2023-04-01T06:28:39;1.60;;;0.90;;
72633;SDS011;60678;47.660;19.280;2023-04-01T06:31:14;1.63;;;0.90;;
72633;SDS011;60678;47.660;19.280;2023-04-01T06:33:52;1.45;;;0.80;;
72633;SDS011;60678;47.660;19.280;2023-04-01T06:39:27;1.55;;;0.80;;
72633;SDS011;60678;47.660;19.280;2023-04-01T06:42:11;1.60;;;0.90;;
72633;SDS011;60678;47.660;19.280;2023-04-01T06:44:45;1.43;;;0.80;;
72633;SDS011;60678;47.660;19.280;2023-04-01T06:47:27;1.50;;;0.80;;
72633;SDS011;60678;47.660;19.280;2023-04-01T06:50:01;1.50;;;0.90;;
72633;SDS011;60678;47.660;19.280;2023-04-01T06:52:35;1.40;;;0.80;;
72633;SDS011;60678;47.660;19.280;2023-04-01T06:55:19;1.50;;;0.80;;
72633;SDS011;60678;47.660;19.280;2023-04-01T06:57:52;1.40;;;0.80;;
72633;SDS011;60678;47.660;19.280;2023-04-01T07:00:25;1.50;;;0.80;;
72633;SDS011;60678;47.660;19.280;2023-04-01T07:02:55;2.45;;;1.35;;
72633;SDS011;60678;47.660;19.280;2023-04-01T07:05:30;1.60;;;1.00;;
72633;SDS011;60678;47.660;19.280;2023-04-01T07:07:58;1.40;;;0.80;;
72633;SDS011;60678;47.660;19.280;2023-04-01T07:10:31;1.53;;;0.83;;
72633;SDS011;60678;47.660;19.280;2023-04-01T07:13:02;1.50;;;0.80;;
72633;SDS011;60678;47.660;19.280;2023-04-01T07:15:33;1.50;;;0.80;;
72633;SDS011;60678;47.660;19.280;2023-04-01T07:18:03;1.30;;;0.70;;
72633;SDS011;60678;47.660;19.280;2023-04-01T07:20:33;1.60;;;0.90;;
72633;SDS011;60678;47.660;19.280;2023-04-01T07:23:02;1.30;;;0.60;;
72633;SDS011;60678;47.660;19.280;2023-04-01T07:25:33;1.40;;;0.80;;
72633;SDS011;60678;47.660;19.280;2023-04-01T07:28:03;1.50;;;0.80;;
72633;SDS011;60678;47.660;19.280;2023-04-01T07:30:46;1.35;;;0.70;;
72633;SDS011;60678;47.660;19.280;2023-04-01T07:33:16;1.50;;;0.90;;
72633;SDS011;60678;47.660;19.280;2023-04-01T07:35:49;1.40;;;0.70;;
72633;SDS011;60678;47.660;19.280;2023-04-01T07:38:22;1.40;;;0.70;;
72633;SDS011;60678;47.660;19.280;2023-04-01T07:40:55;1.37;;;0.70;;
72633;SDS011;60678;47.660;19.280;2023-04-01T07:43:32;1.40;;;0.73;;
72633;SDS011;60678;47.660;19.280;2023-04-01T07:46:07;1.40;;;0.70;;
72633;SDS011;60678;47.660;19.280;2023-04-01T07:48:38;1.30;;;0.70;;
72633;SDS011;60678;47.660;19.280;2023-04-01T07:51:09;1.35;;;0.70;;
72633;SDS011;60678;47.660;19.280;2023-04-01T07:53:41;1.20;;;0.60;;
72633;SDS011;60678;47.660;19.280;2023-04-01T07:56:14;1.30;;;0.70;;
72633;SDS011;60678;47.660;19.280;2023-04-01T07:58:47;1.42;;;0.73;;
72633;SDS011;60678;47.660;19.280;2023-04-01T08:01:20;1.50;;;0.80;;
72633;SDS011;60678;47.660;19.280;2023-04-01T08:03:56;1.45;;;0.80;;
72633;SDS011;60678;47.660;19.280;2023-04-01T08:06:35;1.40;;;0.73;;
72633;SDS011;60678;47.660;19.280;2023-04-01T08:09:06;1.30;;;0.70;;
72633;SDS011;60678;47.660;19.280;2023-04-01T08:11:41;1.70;;;1.10;;
72633;SDS011;60678;47.660;19.280;2023-04-01T08:14:20;1.30;;;0.70;;
72633;SDS011;60678;47.660;19.280;2023-04-01T08:16:54;1.20;;;0.65;;
72633;SDS011;60678;47.660;19.280;2023-04-01T08:19:27;1.33;;;0.70;;
72633;SDS011;60678;47.660;19.280;2023-04-01T08:21:58;1.25;;;0.60;;
72633;SDS011;60678;47.660;19.280;2023-04-01T08:24:33;1.20;;;0.60;;
72633;SDS011;60678;47.660;19.280;2023-04-01T08:27:03;1.40;;;0.70;;
72633;SDS011;60678;47.660;19.280;2023-04-01T08:29:37;1.33;;;0.70;;
72633;SDS011;60678;47.660;19.280;2023-04-01T08:32:09;1.20;;;0.60;;
72633;SDS011;60678;47.660;19.280;2023-04-01T08:34:38;1.20;;;0.60;;
72633;SDS011;60678;47.660;19.280;2023-04-01T08:37:07;1.30;;;0.60;;
72633;SDS011;60678;47.660;19.280;2023-04-01T08:39:37;1.30;;;0.70;;
72633;SDS011;60678;47.660;19.280;2023-04-01T08:42:13;1.40;;;0.70;;
72633;SDS011;60678;47.660;19.280;2023-04-01T08:53:21;1.20;;;0.60;;
72633;SDS011;60678;47.660;19.280;2023-04-01T08:56:01;1.23;;;0.62;;
72633;SDS011;60678;47.660;19.280;2023-04-01T08:58:37;1.20;;;0.60;;
72633;SDS011;60678;47.660;19.280;2023-04-01T09:01:20;1.20;;;0.60;;
72633;SDS011;60678;47.660;19.280;2023-04-01T09:06:51;1.57;;;0.90;;
72633;SDS011;60678;47.660;19.280;2023-04-01T09:09:25;1.30;;;0.70;;
72633;SDS011;60678;47.660;19.280;2023-04-01T09:12:14;1.27;;;0.60;;
72633;SDS011;60678;47.660;19.280;2023-04-01T09:14:54;1.52;;;0.77;;
72633;SDS011;60678;47.660;19.280;2023-04-01T09:17:56;1.40;;;0.70;;
72633;SDS011;60678;47.660;19.280;2023-04-01T09:20:46;1.20;;;0.60;;
72633;SDS011;60678;47.660;19.280;2023-04-01T09:23:43;1.20;;;0.60;;
72633;SDS011;60678;47.660;19.280;2023-04-01T09:26:34;1.30;;;0.70;;
72633;SDS011;60678;47.660;19.280;2023-04-01T09:29:14;1.30;;;0.70;;
72633;SDS011;60678;47.660;19.280;2023-04-01T09:31:54;1.20;;;0.60;;
72633;SDS011;60678;47.660;19.280;2023-04-01T09:34:46;1.27;;;0.63;;
72633;SDS011;60678;47.660;19.280;2023-04-01T09:37:21;1.10;;;0.50;;
72633;SDS011;60678;47.660;19.280;2023-04-01T09:40:09;1.20;;;0.60;;
72633;SDS011;60678;47.660;19.280;2023-04-01T09:42:43;2.37;;;1.67;;
72633;SDS011;60678;47.660;19.280;2023-04-01T09:45:17;1.10;;;0.57;;
72633;SDS011;60678;47.660;19.280;2023-04-01T09:48:00;1.30;;;0.67;;
72633;SDS011;60678;47.660;19.280;2023-04-01T09:50:35;1.20;;;0.60;;
72633;SDS011;60678;47.660;19.280;2023-04-01T09:53:17;1.20;;;0.60;;
72633;SDS011;60678;47.660;19.280;2023-04-01T09:55:53;1.10;;;0.60;;
72633;SDS011;60678;47.660;19.280;2023-04-01T09:59:08;1.20;;;0.60;;
72633;SDS011;60678;47.660;19.280;2023-04-01T10:02:04;1.40;;;0.70;;
72633;SDS011;60678;47.660;19.280;2023-04-01T10:05:16;1.10;;;0.50;;
72633;SDS011;60678;47.660;19.280;2023-04-01T10:08:22;1.12;;;0.50;;
72633;SDS011;60678;47.660;19.280;2023-04-01T10:11:32;1.20;;;0.57;;
72633;SDS011;60678;47.660;19.280;2023-04-01T10:14:35;1.33;;;0.70;;
72633;SDS011;60678;47.660;19.280;2023-04-01T10:17:25;1.20;;;0.60;;
72633;SDS011;60678;47.660;19.280;2023-04-01T10:20:29;1.02;;;0.50;;
72633;SDS011;60678;47.660;19.280;2023-04-01T10:23:26;1.10;;;0.50;;
72633;SDS011;60678;47.660;19.280;2023-04-01T10:26:10;1.12;;;0.60;;
72633;SDS011;60678;47.660;19.280;2023-04-01T10:28:54;1.08;;;0.50;;
72633;SDS011;60678;47.660;19.280;2023-04-01T10:31:54;1.10;;;0.50;;
72633;SDS011;60678;47.660;19.280;2023-04-01T10:34:36;1.10;;;0.55;;
72633;SDS011;60678;47.660;19.280;2023-04-01T10:37:28;1.10;;;0.50;;
72633;SDS011;60678;47.660;19.280;2023-04-01T10:40:21;1.35;;;0.70;;
72633;SDS011;60678;47.660;19.280;2023-04-01T10:46:00;1.10;;;0.50;;
72633;SDS011;60678;47.660;19.280;2023-04-01T10:54:40;1.20;;;0.55;;
72633;SDS011;60678;47.660;19.280;2023-04-01T10:57:34;1.20;;;0.60;;
72633;SDS011;60678;47.660;19.280;2023-04-01T11:03:36;1.30;;;0.70;;
72633;SDS011;60678;47.660;19.280;2023-04-01T11:12:46;1.20;;;0.60;;
72633;SDS011;60678;47.660;19.280;2023-04-01T11:15:49;1.20;;;0.60;;
72633;SDS011;60678;47.660;19.280;2023-04-01T11:25:11;1.10;;;0.50;;
72633;SDS011;60678;47.660;19.280;2023-04-01T11:28:08;1.30;;;0.60;;
72633;SDS011;60678;47.660;19.280;2023-04-01T11:30:51;1.43;;;0.70;;
72633;SDS011;60678;47.660;19.280;2023-04-01T11:33:25;1.30;;;0.60;;
72633;SDS011;60678;47.660;19.280;2023-04-01T11:36:02;1.10;;;0.50;;
72633;SDS011;60678;47.660;19.280;2023-04-01T11:38:48;1.17;;;0.50;;
72633;SDS011;60678;47.660;19.280;2023-04-01T11:41:30;1.40;;;0.70;;
72633;SDS011;60678;47.660;19.280;2023-04-01T11:44:08;1.20;;;0.60;;
72633;SDS011;60678;47.660;19.280;2023-04-01T11:46:44;1.30;;;0.60;;
72633;SDS011;60678;47.660;19.280;2023-04-01T11:49:20;1.17;;;0.52;;
72633;SDS011;60678;47.660;19.280;2023-04-01T11:52:08;1.10;;;0.50;;
72633;SDS011;60678;47.660;19.280;2023-04-01T11:54:56;1.10;;;0.50;;
72633;SDS011;60678;47.660;19.280;2023-04-01T11:57:43;1.10;;;0.50;;
72633;SDS011;60678;47.660;19.280;2023-04-01T12:00:28;1.17;;;0.55;;
72633;SDS011;60678;47.660;19.280;2023-04-01T12:03:09;1.10;;;0.50;;
72633;SDS011;60678;47.660;19.280;2023-04-01T12:05:45;1.27;;;0.60;;
72633;SDS011;60678;47.660;19.280;2023-04-01T12:08:16;1.27;;;0.60;;
72633;SDS011;60678;47.660;19.280;2023-04-01T12:10:49;1.10;;;0.50;;
72633;SDS011;60678;47.660;19.280;2023-04-01T12:13:24;1.20;;;0.50;;
72633;SDS011;60678;47.660;19.280;2023-04-01T12:16:03;1.20;;;0.60;;
72633;SDS011;60678;47.660;19.280;2023-04-01T12:18:36;1.20;;;0.50;;
72633;SDS011;60678;47.660;19.280;2023-04-01T12:21:09;1.20;;;0.60;;
72633;SDS011;60678;47.660;19.280;2023-04-01T12:24:00;1.10;;;0.52;;
72633;SDS011;60678;47.660;19.280;2023-04-01T12:29:33;1.10;;;0.50;;
72633;SDS011;60678;47.660;19.280;2023-04-01T12:32:22;1.20;;;0.60;;
72633;SDS011;60678;47.660;19.280;2023-04-01T12:34:58;1.20;;;0.60;;
72633;SDS011;60678;47.660;19.280;2023-04-01T12:37:39;1.10;;;0.50;;
72633;SDS011;60678;47.660;19.280;2023-04-01T12:40:17;1.10;;;0.50;;
72633;SDS011;60678;47.660;19.280;2023-04-01T12:42:53;1.10;;;0.57;;
72633;SDS011;60678;47.660;19.280;2023-04-01T12:45:28;1.65;;;1.02;;
72633;SDS011;60678;47.660;19.280;2023-04-01T12:48:01;1.20;;;0.57;;
72633;SDS011;60678;47.660;19.280;2023-04-01T12:50:39;1.20;;;0.60;;
72633;SDS011;60678;47.660;19.280;2023-04-01T12:53:25;1.27;;;0.68;;
72633;SDS011;60678;47.660;19.280;2023-04-01T12:56:02;1.20;;;0.60;;
72633;SDS011;60678;47.660;19.280;2023-04-01T12:58:35;1.55;;;0.85;;
72633;SDS011;60678;47.660;19.280;2023-04-01T13:01:37;1.12;;;0.50;;
72633;SDS011;60678;47.660;19.280;2023-04-01T13:10:15;4.60;;;1.98;;
72633;SDS011;60678;47.660;19.280;2023-04-01T13:12:58;1.10;;;0.50;;
72633;SDS011;60678;47.660;19.280;2023-04-01T13:15:31;1.15;;;0.57;;
72633;SDS011;60678;47.660;19.280;2023-04-01T13:18:04;1.20;;;0.60;;
72633;SDS011;60678;47.660;19.280;2023-04-01T13:20:44;1.10;;;0.50;;
72633;SDS011;60678;47.660;19.280;2023-04-01T13:23:22;1.10;;;0.50;;
72633;SDS011;60678;47.660;19.280;2023-04-01T13:25:58;1.10;;;0.50;;
72633;SDS011;60678;47.660;19.280;2023-04-01T13:28:34;1.20;;;0.52;;
72633;SDS011;60678;47.660;19.280;2023-04-01T13:31:05;1.17;;;0.52;;
72633;SDS011;60678;47.660;19.280;2023-04-01T13:33:36;1.10;;;0.50;;
72633;SDS011;60678;47.660;19.280;2023-04-01T13:36:10;1.60;;;1.10;;
72633;SDS011;60678;47.660;19.280;2023-04-01T13:38:47;1.20;;;0.57;;
72633;SDS011;60678;47.660;19.280;2023-04-01T13:41:22;1.12;;;0.52;;
72633;SDS011;60678;47.660;19.280;2023-04-01T13:43:57;1.02;;;0.47;;
72633;SDS011;60678;47.660;19.280;2023-04-01T13:46:36;1.00;;;0.40;;
72633;SDS011;60678;47.660;19.280;2023-04-01T13:49:23;1.00;;;0.40;;
72633;SDS011;60678;47.660;19.280;2023-04-01T13:58:07;0.90;;;0.40;;
72633;SDS011;60678;47.660;19.280;2023-04-01T14:00:51;1.33;;;0.60;;
72633;SDS011;60678;47.660;19.280;2023-04-01T14:03:28;1.00;;;0.40;;
72633;SDS011;60678;47.660;19.280;2023-04-01T14:06:02;0.98;;;0.40;;
72633;SDS011;60678;47.660;19.280;2023-04-01T14:08:36;1.00;;;0.50;;
72633;SDS011;60678;47.660;19.280;2023-04-01T14:11:16;1.17;;;0.57;;
72633;SDS011;60678;47.660;19.280;2023-04-01T14:13:47;1.00;;;0.40;;
72633;SDS011;60678;47.660;19.280;2023-04-01T14:16:32;1.00;;;0.40;;
72633;SDS011;60678;47.660;19.280;2023-04-01T14:19:11;1.10;;;0.50;;
72633;SDS011;60678;47.660;19.280;2023-04-01T14:21:51;0.98;;;0.40;;
72633;SDS011;60678;47.660;19.280;2023-04-01T14:27:18;0.90;;;0.40;;
72633;SDS011;60678;47.660;19.280;2023-04-01T14:32:43;1.00;;;0.45;;
72633;SDS011;60678;47.660;19.280;2023-04-01T14:35:21;1.12;;;0.40;;
72633;SDS011;60678;47.660;19.280;2023-04-01T14:38:06;1.00;;;0.40;;
72633;SDS011;60678;47.660;19.280;2023-04-01T14:41:00;1.20;;;0.60;;
72633;SDS011;60678;47.660;19.280;2023-04-01T14:50:02;1.08;;;0.47;;
72633;SDS011;60678;47.660;19.280;2023-04-01T14:52:33;1.10;;;0.50;;
72633;SDS011;60678;47.660;19.280;2023-04-01T14:55:02;1.08;;;0.50;;
72633;SDS011;60678;47.660;19.280;2023-04-01T14:57:45;1.15;;;0.55;;
72633;SDS011;60678;47.660;19.280;2023-04-01T15:00:25;1.10;;;0.45;;
72633;SDS011;60678;47.660;19.280;2023-04-01T15:02:54;1.10;;;0.50;;
72633;SDS011;60678;47.660;19.280;2023-04-01T15:05:27;1.10;;;0.50;;
72633;SDS011;60678;47.660;19.280;2023-04-01T15:08:05;1.25;;;0.60;;
72633;SDS011;60678;47.660;19.280;2023-04-01T15:10:42;1.10;;;0.50;;
72633;SDS011;60678;47.660;19.280;2023-04-01T15:13:17;1.10;;;0.50;;
72633;SDS011;60678;47.660;19.280;2023-04-01T15:15:56;1.37;;;0.68;;
72633;SDS011;60678;47.660;19.280;2023-04-01T15:18:31;2.60;;;0.90;;
72633;SDS011;60678;47.660;19.280;2023-04-01T15:21:07;1.30;;;0.60;;
72633;SDS011;60678;47.660;19.280;2023-04-01T15:24:01;1.40;;;0.70;;
72633;SDS011;60678;47.660;19.280;2023-04-01T15:26:36;1.40;;;0.70;;
72633;SDS011;60678;47.660;19.280;2023-04-01T15:29:19;1.10;;;0.50;;
72633;SDS011;60678;47.660;19.280;2023-04-01T15:32:00;1.20;;;0.60;;
72633;SDS011;60678;47.660;19.280;2023-04-01T15:34:32;1.20;;;0.60;;
72633;SDS011;60678;47.660;19.280;2023-04-01T15:37:03;1.20;;;0.60;;
72633;SDS011;60678;47.660;19.280;2023-04-01T15:39:42;1.25;;;0.60;;
72633;SDS011;60678;47.660;19.280;2023-04-01T15:42:18;1.23;;;0.62;;
72633;SDS011;60678;47.660;19.280;2023-04-01T15:44:57;1.20;;;0.60;;
72633;SDS011;60678;47.660;19.280;2023-04-01T15:47:34;1.27;;;0.65;;
72633;SDS011;60678;47.660;19.280;2023-04-01T15:50:17;1.23;;;0.60;;
72633;SDS011;60678;47.660;19.280;2023-04-01T15:52:56;1.10;;;0.50;;
72633;SDS011;60678;47.660;19.280;2023-04-01T15:55:30;1.10;;;0.50;;
72633;SDS011;60678;47.660;19.280;2023-04-01T15:58:07;1.20;;;0.60;;
72633;SDS011;60678;47.660;19.280;2023-04-01T16:00:49;1.20;;;0.60;;
72633;SDS011;60678;47.660;19.280;2023-04-01T16:03:27;1.20;;;0.50;;
72633;SDS011;60678;47.660;19.280;2023-04-01T16:06:01;1.10;;;0.50;;
72633;SDS011;60678;47.660;19.280;2023-04-01T16:09:01;1.10;;;0.50;;
72633;SDS011;60678;47.660;19.280;2023-04-01T16:11:37;1.20;;;0.57;;
72633;SDS011;60678;47.660;19.280;2023-04-01T16:14:12;1.15;;;0.55;;
72633;SDS011;60678;47.660;19.280;2023-04-01T16:16:52;1.10;;;0.50;;
72633;SDS011;60678;47.660;19.280;2023-04-01T16:19:27;1.10;;;0.50;;
72633;SDS011;60678;47.660;19.280;2023-04-01T16:21:59;1.10;;;0.50;;
72633;SDS011;60678;47.660;19.280;2023-04-01T16:24:30;1.20;;;0.60;;
72633;SDS011;60678;47.660;19.280;2023-04-01T16:27:00;1.20;;;0.52;;
72633;SDS011;60678;47.660;19.280;2023-04-01T16:29:32;1.10;;;0.50;;